Brookland, Arkansas
Current Conditions -  °F | °C
As of 5:53 AM on Saturday 22 Nov 2014 (Local Time) from KJBR Reporting Station
Overcast Overcast  
Wind Chill: 46°   Ceiling: 5000
Heat Index: 49°   Visibility: 10mi
Dew Point: 47°   Wind: 7mph
Humidity: 93%   Direction: 170°S
Pressure: 30.23"   Gusts: NA
Location:  35.9°N, 90.58°W
Report Text: KJBR 221153Z AUTO 17006KT 10SM OVC050 09/08 A3023 RMK AO2 SLP236 70004 T00940083 10094 20056 55003
Loading
Personal Weather Stations






























Interactive Weather Map New forecast layout! Learn more

10-Day Weather Forecast

Advertisements
Track Severe Weather on mobile